Time;durP1;ratioP1;P1;durP2;ratioP2;P2;SDS_P1;SDS_P2;PMS_P1;PMS_P2;Temp;Humidity;BMP_temperature;BMP_pressure;BME280_temperature;BME280_humidity;BME280_pressure;Samples;Min_cycle;Max_cycle;Signal;HPM_P1;HPM_P2
2022/08/09 00:02:00;;;;;;;4.90;3.70;;;18.00;99.90;;;;;;5069394;28;20444;-49
2022/08/09 00:04:28;;;;;;;5.27;3.97;;;18.10;99.90;;;;;;5069244;28;20432;-51
2022/08/09 00:06:55;;;;;;;5.10;4.60;;;18.20;99.90;;;;;;5072533;28;20462;-49
2022/08/09 00:09:22;;;;;;;4.40;4.00;;;18.30;99.90;;;;;;5072644;28;20931;-50
2022/08/09 00:11:49;;;;;;;4.00;3.60;;;18.10;99.90;;;;;;5072857;28;20851;-50
2022/08/09 00:14:17;;;;;;;4.40;3.97;;;18.30;99.90;;;;;;5072665;28;20882;-50
2022/08/09 00:16:44;;;;;;;4.23;3.87;;;18.40;99.90;;;;;;5072794;28;20444;-50
2022/08/09 00:19:11;;;;;;;4.27;3.80;;;18.30;99.90;;;;;;5073011;28;20460;-49
2022/08/09 00:21:40;;;;;;;5.20;4.00;;;18.10;99.90;;;;;;5072871;28;20803;-50
2022/08/09 00:24:07;;;;;;;3.77;3.47;;;18.00;99.90;;;;;;5073252;28;20448;-49
2022/08/09 00:26:35;;;;;;;4.40;4.00;;;17.80;99.90;;;;;;5072719;28;20455;-50
2022/08/09 00:29:02;;;;;;;4.50;4.07;;;17.70;99.90;;;;;;5072759;28;20823;-49
2022/08/09 00:31:30;;;;;;;4.47;4.07;;;17.80;99.90;;;;;;5073158;28;20466;-49
2022/08/09 00:33:57;;;;;;;3.97;3.67;;;17.80;99.90;;;;;;5072317;28;20474;-50
2022/08/09 00:36:25;;;;;;;4.37;3.97;;;17.90;99.90;;;;;;5072572;28;21006;-49
2022/08/09 00:38:53;;;;;;;6.23;3.90;;;18.00;99.90;;;;;;5072464;28;20559;-49
2022/08/09 00:41:21;;;;;;;5.90;4.37;;;17.90;99.90;;;;;;5072559;28;20452;-49
2022/08/09 00:43:48;;;;;;;5.53;4.77;;;17.80;99.90;;;;;;5072472;28;20436;-49
2022/08/09 00:46:16;;;;;;;4.40;4.00;;;17.80;99.90;;;;;;5072306;28;20502;-50
2022/08/09 00:48:43;;;;;;;4.83;3.60;;;17.90;99.90;;;;;;5071910;28;20861;-49
2022/08/09 00:51:10;;;;;;;8.40;4.50;;;17.70;99.90;;;;;;5072317;28;20448;-49
2022/08/09 00:53:38;;;;;;;3.90;3.60;;;17.70;99.90;;;;;;5072073;28;20515;-50
2022/08/09 00:56:08;;;;;;;3.87;3.57;;;17.70;99.90;;;;;;5072009;28;20472;-49
2022/08/09 00:58:35;;;;;;;4.73;4.27;;;17.80;99.90;;;;;;5072009;28;20476;-49
2022/08/09 01:01:10;;;;;;;4.00;3.70;;;17.70;99.90;;;;;;5071777;28;20437;-50
2022/08/09 01:03:48;;;;;;;3.90;3.50;;;17.90;99.90;;;;;;5072081;28;20993;-50
2022/08/09 01:06:21;;;;;;;4.50;3.83;;;17.80;99.90;;;;;;5072278;28;20440;-49
2022/08/09 01:08:58;;;;;;;4.03;3.60;;;17.80;99.90;;;;;;5071688;28;20494;-49
2022/08/09 01:11:37;;;;;;;6.57;4.10;;;17.60;99.90;;;;;;5072120;28;20485;-50
2022/08/09 01:14:10;;;;;;;5.07;3.90;;;17.60;99.90;;;;;;5071718;28;20830;-49
2022/08/09 01:16:44;;;;;;;5.83;4.30;;;17.70;99.90;;;;;;5071776;28;20455;-49
2022/08/09 01:19:23;;;;;;;4.43;4.03;;;17.80;99.90;;;;;;5071447;28;20468;-51
2022/08/09 01:22:04;;;;;;;4.00;3.70;;;17.70;99.90;;;;;;5071868;28;21026;-50
2022/08/09 01:24:39;;;;;;;4.80;3.70;;;17.60;99.90;;;;;;5071672;28;20497;-49
2022/08/09 01:27:10;;;;;;;4.23;3.83;;;17.50;99.90;;;;;;5071836;28;20451;-49
2022/08/09 01:29:42;;;;;;;4.73;4.30;;;17.50;99.90;;;;;;5071074;28;20858;-51
2022/08/09 01:32:12;;;;;;;5.17;4.67;;;17.60;99.90;;;;;;5071520;28;20964;-49
2022/08/09 01:34:51;;;;;;;4.33;4.03;;;17.70;99.90;;;;;;5071418;28;20549;-50
2022/08/09 01:37:20;;;;;;;4.20;3.80;;;17.60;99.90;;;;;;5071375;28;20502;-51
2022/08/09 01:39:50;;;;;;;4.27;3.83;;;17.60;99.90;;;;;;5070903;28;20455;-48
2022/08/09 01:42:20;;;;;;;4.60;4.20;;;17.70;99.90;;;;;;5071113;28;20432;-50
2022/08/09 01:44:48;;;;;;;8.77;4.27;;;17.70;99.90;;;;;;5071227;28;20499;-50
2022/08/09 01:47:15;;;;;;;5.27;4.40;;;17.40;99.90;;;;;;5071196;28;20957;-49
2022/08/09 01:49:46;;;;;;;4.40;4.00;;;17.50;99.90;;;;;;5070902;28;21026;-49
2022/08/09 01:52:15;;;;;;;5.40;3.70;;;17.70;99.90;;;;;;5071304;28;20959;-50
2022/08/09 01:54:47;;;;;;;3.10;2.90;;;17.50;99.90;;;;;;5070590;28;20496;-51
2022/08/09 01:57:17;;;;;;;4.40;4.00;;;17.60;99.90;;;;;;5071186;28;20540;-49
2022/08/09 01:59:48;;;;;;;3.97;3.60;;;17.40;99.90;;;;;;5070627;28;20465;-50
2022/08/09 02:02:16;;;;;;;4.70;4.20;;;17.30;99.90;;;;;;5071042;28;20493;-49
2022/08/09 02:04:44;;;;;;;4.60;4.20;;;17.20;99.90;;;;;;5070952;28;20433;-49
2022/08/09 02:07:16;;;;;;;4.87;4.17;;;17.20;99.90;;;;;;5070797;28;20444;-51
2022/08/09 02:09:49;;;;;;;4.17;3.60;;;17.20;99.90;;;;;;5070734;28;20478;-49
2022/08/09 02:12:17;;;;;;;4.30;4.00;;;17.10;99.90;;;;;;5071039;28;20463;-49
2022/08/09 02:14:50;;;;;;;3.90;3.60;;;16.80;99.90;;;;;;5070719;28;20884;-49
2022/08/09 02:17:18;;;;;;;4.43;4.03;;;17.00;99.90;;;;;;5070704;28;20497;-49
2022/08/09 02:19:45;;;;;;;6.00;4.30;;;17.10;99.90;;;;;;5070221;28;20460;-49
2022/08/09 02:22:20;;;;;;;4.40;4.00;;;17.00;99.90;;;;;;5070533;28;20444;-50
2022/08/09 02:24:50;;;;;;;4.53;3.90;;;17.10;99.90;;;;;;5070567;28;20463;-49
2022/08/09 02:27:20;;;;;;;4.90;4.40;;;17.10;99.90;;;;;;5070311;28;20452;-50
2022/08/09 02:29:51;;;;;;;4.63;4.20;;;16.80;99.90;;;;;;5069508;28;20460;-49
2022/08/09 02:32:21;;;;;;;4.63;4.23;;;16.90;99.90;;;;;;5070288;28;20516;-49
2022/08/09 02:34:52;;;;;;;4.20;3.90;;;17.10;99.90;;;;;;5070032;28;20472;-49
2022/08/09 02:37:23;;;;;;;4.77;4.27;;;17.20;99.90;;;;;;5070268;28;20433;-49
2022/08/09 02:39:55;;;;;;;4.30;3.90;;;16.90;99.90;;;;;;5069975;28;20502;-50
2022/08/09 02:42:27;;;;;;;4.33;3.93;;;16.70;99.90;;;;;;5070180;28;20578;-50
2022/08/09 02:45:00;;;;;;;4.53;4.13;;;16.90;99.90;;;;;;5070220;28;20448;-49
2022/08/09 02:47:30;;;;;;;4.20;3.80;;;17.10;99.90;;;;;;5070180;28;20470;-49
2022/08/09 02:50:01;;;;;;;4.40;3.57;;;17.00;99.90;;;;;;5069712;28;20456;-50
2022/08/09 02:52:36;;;;;;;4.80;3.77;;;16.80;99.90;;;;;;5070170;28;20519;-49
2022/08/09 02:55:04;;;;;;;4.63;4.20;;;16.70;99.90;;;;;;5069806;28;20472;-51
2022/08/09 02:57:33;;;;;;;4.40;4.00;;;17.00;99.90;;;;;;5070250;28;20451;-49
2022/08/09 03:00:02;;;;;;;4.43;3.73;;;17.00;99.90;;;;;;5069489;28;20471;-50
2022/08/09 03:02:30;;;;;;;4.40;3.93;;;16.90;99.90;;;;;;5069819;28;20433;-49
2022/08/09 03:04:58;;;;;;;4.67;4.07;;;16.90;99.90;;;;;;5069925;28;20493;-51
2022/08/09 03:07:26;;;;;;;4.70;4.30;;;17.10;99.90;;;;;;5069710;28;20918;-49
2022/08/09 03:09:54;;;;;;;4.37;3.97;;;17.10;99.90;;;;;;5069837;28;20460;-50
2022/08/09 03:12:23;;;;;;;4.90;4.50;;;17.00;99.90;;;;;;5069960;28;20453;-49
2022/08/09 03:14:51;;;;;;;4.97;3.73;;;16.90;99.90;;;;;;5069754;28;20468;-50
2022/08/09 03:17:21;;;;;;;5.50;3.87;;;17.00;99.90;;;;;;5069848;28;20494;-49
2022/08/09 03:19:49;;;;;;;4.67;4.17;;;16.60;99.90;;;;;;5069838;28;20448;-49
2022/08/09 03:22:16;;;;;;;4.70;4.20;;;16.90;99.90;;;;;;5069626;28;20424;-49
2022/08/09 03:24:43;;;;;;;5.00;4.60;;;16.90;99.90;;;;;;5069923;28;20585;-50
2022/08/09 03:27:12;;;;;;;5.10;4.67;;;16.80;99.90;;;;;;5069969;28;20431;-49
2022/08/09 03:29:39;;;;;;;3.93;3.50;;;17.00;99.90;;;;;;5068906;28;20453;-49
2022/08/09 03:32:08;;;;;;;5.00;4.50;;;17.10;99.90;;;;;;5069710;28;20436;-49
2022/08/09 03:34:37;;;;;;;5.00;4.50;;;16.50;99.90;;;;;;5069605;28;20476;-50
2022/08/09 03:37:04;;;;;;;4.70;4.30;;;16.30;99.90;;;;;;5069508;28;20432;-50
2022/08/09 03:39:31;;;;;;;4.90;4.50;;;16.30;99.90;;;;;;5069498;28;20465;-49
2022/08/09 03:41:58;;;;;;;4.70;4.20;;;16.30;99.90;;;;;;5073372;28;20436;-50
2022/08/09 03:44:28;;;;;;;4.70;4.03;;;16.50;99.90;;;;;;5073457;28;20952;-48
2022/08/09 03:46:55;;;;;;;5.07;4.53;;;16.40;99.90;;;;;;5073494;28;20439;-49
2022/08/09 03:49:27;;;;;;;4.63;3.97;;;16.30;99.90;;;;;;5073134;28;20965;-51
2022/08/09 03:51:58;;;;;;;3.93;3.63;;;16.30;99.90;;;;;;5073428;28;20436;-49
2022/08/09 03:54:27;;;;;;;5.13;4.40;;;16.30;99.90;;;;;;5073475;28;20468;-49
2022/08/09 03:56:55;;;;;;;4.40;4.10;;;16.40;99.90;;;;;;5073540;28;20456;-49
2022/08/09 03:59:22;;;;;;;4.33;3.93;;;16.50;99.90;;;;;;5073876;28;20464;-49
2022/08/09 04:01:49;;;;;;;4.17;3.87;;;16.60;99.90;;;;;;5073278;28;20452;-49
2022/08/09 04:04:18;;;;;;;4.53;4.13;;;16.60;99.90;;;;;;5073294;28;20448;-49
2022/08/09 04:06:45;;;;;;;10.30;3.80;;;16.90;99.90;;;;;;5073095;28;20786;-50
2022/08/09 04:09:13;;;;;;;7.33;5.50;;;16.90;99.90;;;;;;5072775;28;20525;-50
2022/08/09 04:12:02;;;;;;;4.77;4.30;;;16.80;99.90;;;;;;5073015;28;20453;-49
2022/08/09 04:14:29;;;;;;;4.20;3.63;;;16.20;99.90;;;;;;5072795;28;20873;-49
2022/08/09 04:16:56;;;;;;;6.23;4.10;;;16.30;99.90;;;;;;5073272;28;20659;-50
2022/08/09 04:19:23;;;;;;;6.20;4.47;;;16.20;99.90;;;;;;5072606;28;20941;-49
2022/08/09 04:21:50;;;;;;;4.23;3.83;;;16.30;99.90;;;;;;5072820;28;20469;-50
2022/08/09 04:24:19;;;;;;;4.33;3.73;;;16.40;99.90;;;;;;5072730;28;20443;-49
2022/08/09 04:26:46;;;;;;;5.37;4.13;;;16.10;99.90;;;;;;5072611;28;20440;-49
2022/08/09 04:29:13;;;;;;;6.50;4.00;;;16.30;99.90;;;;;;5072086;28;20463;-49
2022/08/09 04:31:40;;;;;;;7.20;3.87;;;16.40;99.90;;;;;;5073134;28;20457;-49
2022/08/09 04:34:07;;;;;;;4.60;4.20;;;16.60;99.90;;;;;;5072475;28;20480;-50
2022/08/09 04:36:34;;;;;;;5.00;4.50;;;16.30;99.90;;;;;;5072416;28;20437;-49
2022/08/09 04:39:04;;;;;;;4.30;4.00;;;16.30;99.90;;;;;;5072276;28;20989;-50
2022/08/09 04:41:32;;;;;;;4.57;3.93;;;16.40;99.90;;;;;;5072528;28;20445;-49
2022/08/09 04:43:59;;;;;;;5.20;4.70;;;16.40;99.90;;;;;;5072444;28;20937;-50
2022/08/09 04:46:26;;;;;;;4.40;3.87;;;16.40;99.90;;;;;;5072348;28;20472;-51
2022/08/09 04:48:53;;;;;;;4.00;3.70;;;16.50;99.90;;;;;;5072166;28;20460;-49
2022/08/09 04:51:20;;;;;;;4.50;4.10;;;16.40;99.90;;;;;;5072033;28;20452;-48
2022/08/09 04:53:47;;;;;;;4.23;3.83;;;16.20;99.90;;;;;;5072300;28;21000;-49
2022/08/09 04:56:14;;;;;;;5.60;4.90;;;16.50;99.90;;;;;;5072343;28;20449;-49
2022/08/09 04:58:42;;;;;;;6.27;5.67;;;16.50;99.90;;;;;;5071931;28;20460;-49
2022/08/09 05:01:09;;;;;;;6.03;5.43;;;16.20;99.90;;;;;;5072009;28;20800;-48
2022/08/09 05:03:36;;;;;;;5.20;4.70;;;16.50;99.90;;;;;;5072096;28;20452;-49
2022/08/09 05:06:05;;;;;;;7.83;5.90;;;16.50;99.90;;;;;;5072077;28;20498;-50
2022/08/09 05:08:33;;;;;;;5.70;5.20;;;16.40;99.90;;;;;;5071787;28;20429;-48
2022/08/09 05:11:01;;;;;;;7.40;5.07;;;16.60;99.90;;;;;;5071831;28;20516;-49
2022/08/09 05:13:28;;;;;;;5.00;4.60;;;16.70;99.90;;;;;;5071706;28;20486;-50
2022/08/09 05:15:56;;;;;;;5.00;4.50;;;16.50;99.90;;;;;;5071584;28;20845;-49
2022/08/09 05:18:24;;;;;;;4.47;4.07;;;16.60;99.90;;;;;;5071757;28;20452;-49
2022/08/09 05:20:51;;;;;;;5.13;4.50;;;16.60;99.90;;;;;;5071691;28;20425;-49
2022/08/09 05:23:18;;;;;;;5.47;4.97;;;16.60;99.90;;;;;;5071607;28;20472;-49
2022/08/09 05:25:45;;;;;;;10.77;5.23;;;16.50;99.90;;;;;;5071612;28;20455;-50
2022/08/09 05:28:12;;;;;;;5.30;4.90;;;16.50;99.90;;;;;;5071170;28;20456;-49
2022/08/09 05:30:39;;;;;;;5.80;5.20;;;16.50;99.90;;;;;;5071204;28;20472;-51
2022/08/09 05:33:07;;;;;;;10.10;6.00;;;16.20;99.90;;;;;;5071519;28;20456;-49
2022/08/09 05:35:34;;;;;;;6.47;5.40;;;16.30;99.90;;;;;;5071287;28;20472;-49
2022/08/09 05:38:01;;;;;;;5.67;5.17;;;16.20;99.90;;;;;;5071382;28;20444;-50
2022/08/09 05:40:29;;;;;;;5.87;4.97;;;16.50;99.90;;;;;;5071398;28;20498;-49
2022/08/09 05:42:56;;;;;;;5.33;4.83;;;16.40;99.90;;;;;;5071242;28;20922;-50
2022/08/09 05:45:24;;;;;;;5.53;5.10;;;16.60;99.90;;;;;;5071242;28;20448;-49
2022/08/09 05:47:51;;;;;;;6.37;4.33;;;16.60;99.90;;;;;;5071420;28;20502;-50
2022/08/09 05:50:22;;;;;;;5.07;4.60;;;16.40;99.90;;;;;;5070969;28;20514;-49
2022/08/09 05:52:49;;;;;;;5.00;4.60;;;16.10;99.90;;;;;;5071209;28;20433;-49
2022/08/09 05:55:16;;;;;;;5.17;4.67;;;15.70;99.90;;;;;;5070938;28;20482;-50
2022/08/09 05:57:43;;;;;;;4.63;4.23;;;16.00;99.90;;;;;;5071371;28;20944;-50
2022/08/09 06:00:11;;;;;;;8.33;4.60;;;16.30;99.90;;;;;;5072268;28;20465;-50
2022/08/09 06:02:39;;;;;;;5.00;4.43;;;16.40;99.90;;;;;;5070720;28;20468;-51
2022/08/09 06:05:07;;;;;;;4.90;4.40;;;16.30;99.90;;;;;;5071606;28;20444;-49
2022/08/09 06:07:35;;;;;;;6.30;5.10;;;16.40;99.90;;;;;;5071638;28;20429;-49
2022/08/09 06:10:03;;;;;;;5.03;4.63;;;16.20;99.90;;;;;;5071144;28;20465;-49
2022/08/09 06:12:31;;;;;;;6.00;4.27;;;16.10;99.90;;;;;;5071760;28;20811;-49
2022/08/09 06:14:58;;;;;;;5.43;4.60;;;16.40;99.90;;;;;;5071232;28;20464;-51
2022/08/09 06:17:25;;;;;;;5.47;4.97;;;16.30;99.90;;;;;;5071192;28;20500;-49
2022/08/09 06:19:52;;;;;;;5.10;4.70;;;16.30;99.90;;;;;;5071210;28;20479;-51
2022/08/09 06:22:19;;;;;;;5.20;4.70;;;16.30;99.90;;;;;;5071584;28;20441;-49
2022/08/09 06:24:47;;;;;;;5.27;4.57;;;16.20;99.90;;;;;;5070828;28;20493;-51
2022/08/09 06:27:14;;;;;;;5.67;5.17;;;16.10;99.90;;;;;;5071160;28;20444;-51
2022/08/09 06:29:41;;;;;;;5.20;4.70;;;16.20;99.90;;;;;;5070400;28;20456;-49
2022/08/09 06:32:08;;;;;;;5.90;4.60;;;16.10;99.90;;;;;;5070882;28;20440;-50
2022/08/09 06:34:36;;;;;;;5.70;5.00;;;16.30;99.90;;;;;;5070496;28;21000;-50
2022/08/09 06:37:04;;;;;;;7.20;5.00;;;16.40;99.90;;;;;;5070449;28;20455;-49
2022/08/09 06:39:31;;;;;;;9.20;8.30;;;16.00;99.90;;;;;;5070246;28;20874;-48
2022/08/09 06:42:00;;;;;;;7.53;6.00;;;15.90;99.90;;;;;;5070348;28;20943;-49
2022/08/09 06:44:27;;;;;;;6.37;5.70;;;16.00;99.90;;;;;;5070155;28;20452;-48
2022/08/09 06:46:54;;;;;;;7.97;5.03;;;15.90;99.90;;;;;;5070617;28;20455;-49
2022/08/09 06:49:21;;;;;;;5.33;4.80;;;16.40;99.90;;;;;;5070657;28;20497;-49
2022/08/09 06:51:48;;;;;;;5.73;5.17;;;16.50;99.90;;;;;;5070653;28;20445;-50
2022/08/09 06:54:15;;;;;;;5.70;5.10;;;16.70;99.90;;;;;;5070555;28;20444;-50
2022/08/09 06:56:42;;;;;;;5.10;4.67;;;16.90;99.90;;;;;;5070035;28;20448;-50
2022/08/09 06:59:11;;;;;;;6.10;5.20;;;17.10;99.90;;;;;;5069666;28;20530;-49
2022/08/09 07:01:38;;;;;;;5.27;4.80;;;17.00;99.90;;;;;;5070047;28;20452;-49
2022/08/09 07:04:05;;;;;;;5.27;4.80;;;17.10;99.90;;;;;;5069987;28;20464;-51
2022/08/09 07:06:32;;;;;;;6.80;4.83;;;16.90;99.90;;;;;;5069993;28;20505;-49
2022/08/09 07:08:59;;;;;;;5.90;5.00;;;17.10;99.90;;;;;;5069602;28;20953;-49
2022/08/09 07:11:26;;;;;;;5.30;4.80;;;17.00;99.90;;;;;;5070367;28;20502;-49
2022/08/09 07:13:53;;;;;;;6.03;5.13;;;17.20;99.90;;;;;;5069892;28;20448;-50
2022/08/09 07:16:21;;;;;;;5.97;5.20;;;17.10;99.90;;;;;;5069514;28;21072;-49
2022/08/09 07:18:48;;;;;;;5.97;5.47;;;16.60;99.90;;;;;;5069469;28;20529;-49
2022/08/09 07:21:15;;;;;;;7.30;5.33;;;17.10;99.90;;;;;;5069839;28;20445;-49
2022/08/09 07:23:42;;;;;;;6.20;5.60;;;17.10;99.90;;;;;;5070300;28;20444;-50
2022/08/09 07:26:09;;;;;;;5.50;5.10;;;16.90;99.90;;;;;;5069760;28;20475;-49
2022/08/09 07:28:37;;;;;;;7.13;5.37;;;16.90;99.90;;;;;;5069255;28;20494;-49
2022/08/09 07:31:05;;;;;;;6.07;5.47;;;17.10;99.90;;;;;;5069647;28;20445;-50
2022/08/09 07:33:33;;;;;;;5.77;5.03;;;17.50;99.90;;;;;;5069749;28;20502;-49
2022/08/09 07:36:00;;;;;;;5.30;4.90;;;17.50;99.90;;;;;;5069496;28;20526;-50
2022/08/09 07:38:27;;;;;;;5.83;5.33;;;17.70;99.90;;;;;;5069636;28;20448;-49
2022/08/09 07:40:54;;;;;;;5.03;4.53;;;17.70;99.90;;;;;;5069652;28;20455;-49
2022/08/09 07:43:21;;;;;;;5.00;4.60;;;17.90;99.90;;;;;;5069769;28;20534;-49
2022/08/09 07:45:48;;;;;;;5.20;4.77;;;18.20;99.90;;;;;;5069428;28;20786;-49
2022/08/09 07:48:15;;;;;;;5.70;5.20;;;18.50;99.90;;;;;;5069515;28;20456;-49
2022/08/09 07:50:44;;;;;;;4.57;4.17;;;18.40;99.90;;;;;;5069273;28;20514;-49
2022/08/09 07:53:11;;;;;;;4.90;4.50;;;18.50;99.90;;;;;;5069427;28;20440;-49
2022/08/09 07:55:38;;;;;;;5.90;5.03;;;18.60;99.90;;;;;;5069287;28;20482;-53
2022/08/09 07:58:05;;;;;;;4.60;4.20;;;18.70;99.90;;;;;;5069490;28;20464;-49
2022/08/09 08:00:32;;;;;;;4.80;4.40;;;18.80;99.90;;;;;;5069550;28;20484;-49
2022/08/09 08:03:01;;;;;;;6.37;4.17;;;19.00;99.90;;;;;;5069460;28;20424;-49
2022/08/09 08:05:28;;;;;;;5.87;4.23;;;19.10;99.90;;;;;;5069353;28;20437;-52
2022/08/09 08:07:57;;;;;;;6.17;4.13;;;19.20;99.90;;;;;;5069497;28;20489;-49
2022/08/09 08:10:24;;;;;;;4.97;4.53;;;19.50;99.90;;;;;;5069180;28;20525;-49
2022/08/09 08:12:51;;;;;;;5.20;3.97;;;19.70;99.90;;;;;;5069209;28;20424;-51
2022/08/09 08:15:19;;;;;;;4.93;4.40;;;19.80;99.90;;;;;;5069094;28;20464;-50
2022/08/09 08:17:50;;;;;;;4.80;4.40;;;19.80;99.90;;;;;;5069178;28;20518;-50
2022/08/09 08:20:18;;;;;;;5.07;4.67;;;19.80;99.90;;;;;;5069060;28;20551;-50
2022/08/09 08:22:45;;;;;;;6.13;5.10;;;20.00;99.90;;;;;;5069242;28;20523;-50
2022/08/09 08:25:13;;;;;;;4.60;4.20;;;20.20;99.90;;;;;;5069476;28;20440;-51
2022/08/09 08:27:41;;;;;;;4.30;4.00;;;20.40;99.90;;;;;;5071561;28;20513;-49
2022/08/09 08:30:09;;;;;;;5.77;5.17;;;20.40;99.90;;;;;;5072306;28;20475;-50
2022/08/09 08:32:36;;;;;;;5.50;5.10;;;20.50;99.90;;;;;;5072706;28;20448;-51
2022/08/09 08:35:03;;;;;;;5.83;5.33;;;20.70;99.90;;;;;;5072957;28;20467;-49
2022/08/09 08:37:30;;;;;;;5.27;4.77;;;20.70;99.90;;;;;;5072570;28;20508;-50
2022/08/09 08:39:58;;;;;;;4.40;4.00;;;20.70;99.90;;;;;;5072221;28;20550;-50
2022/08/09 08:42:28;;;;;;;5.83;4.70;;;21.10;99.90;;;;;;5072649;28;20944;-50
2022/08/09 08:44:57;;;;;;;5.00;4.60;;;21.30;99.90;;;;;;5072355;28;20443;-50
2022/08/09 08:47:26;;;;;;;5.23;4.70;;;21.10;99.90;;;;;;5072204;28;20856;-49
2022/08/09 08:49:54;;;;;;;9.80;5.33;;;20.80;99.90;;;;;;5072270;28;20735;-49
2022/08/09 08:52:24;;;;;;;4.97;4.57;;;21.00;99.90;;;;;;5072225;28;20425;-49
2022/08/09 08:54:52;;;;;;;4.83;4.43;;;21.30;99.90;;;;;;5072387;28;20436;-50
2022/08/09 08:57:20;;;;;;;17.10;5.70;;;21.70;99.90;;;;;;5072312;28;20456;-52
2022/08/09 08:59:50;;;;;;;5.57;5.07;;;21.70;99.90;;;;;;5071884;28;20887;-51
2022/08/09 09:02:22;;;;;;;5.17;4.77;;;21.60;99.90;;;;;;5072256;28;20432;-50
2022/08/09 09:04:51;;;;;;;5.73;4.80;;;21.70;99.90;;;;;;5072260;28;20432;-50
2022/08/09 09:07:19;;;;;;;5.50;5.10;;;21.70;99.90;;;;;;5072067;28;20474;-51
2022/08/09 09:09:47;;;;;;;24.07;7.67;;;21.50;99.90;;;;;;5071803;28;20472;-50
2022/08/09 09:12:16;;;;;;;5.10;4.60;;;21.10;99.90;;;;;;5071886;28;20468;-51
2022/08/09 09:14:43;;;;;;;6.03;5.10;;;21.00;99.90;;;;;;5071886;28;20448;-50
2022/08/09 09:17:12;;;;;;;13.00;5.10;;;21.30;99.90;;;;;;5071598;28;20468;-50
2022/08/09 09:19:39;;;;;;;5.10;4.60;;;21.70;99.90;;;;;;5071564;28;20491;-51
2022/08/09 09:22:09;;;;;;;5.27;4.80;;;22.40;99.90;;;;;;5071856;28;20608;-50
2022/08/09 09:24:37;;;;;;;4.90;4.50;;;22.60;99.90;;;;;;5071810;28;20910;-50
2022/08/09 09:27:06;;;;;;;4.83;4.43;;;23.00;99.90;;;;;;5071806;28;20991;-51
2022/08/09 09:29:35;;;;;;;5.60;5.10;;;23.00;99.90;;;;;;5070889;28;20513;-51
2022/08/09 09:32:03;;;;;;;5.47;4.97;;;23.20;99.90;;;;;;5071477;28;20463;-50
2022/08/09 09:34:31;;;;;;;4.73;4.33;;;23.10;99.90;;;;;;5071364;28;20433;-51
2022/08/09 09:36:59;;;;;;;4.87;4.47;;;23.10;99.90;;;;;;5071196;28;20472;-50
2022/08/09 09:39:28;;;;;;;6.40;5.07;;;23.20;99.90;;;;;;5071250;28;20468;-50
2022/08/09 09:41:56;;;;;;;7.47;5.33;;;23.10;99.90;;;;;;5071355;28;20425;-50
2022/08/09 09:44:25;;;;;;;5.90;4.63;;;22.40;99.90;;;;;;5071138;28;20460;-50
2022/08/09 09:46:56;;;;;;;5.10;4.23;;;22.30;99.90;;;;;;5071172;28;20436;-50
2022/08/09 09:49:24;;;;;;;7.07;5.37;;;22.80;99.90;;;;;;5070971;28;20476;-50
2022/08/09 09:52:01;;;;;;;4.90;4.50;;;23.30;99.90;;;;;;5071252;28;20871;-50
2022/08/09 09:54:36;;;;;;;5.20;4.70;;;23.60;99.90;;;;;;5071160;28;20962;-49
2022/08/09 09:57:14;;;;;;;4.63;4.23;;;23.30;99.90;;;;;;5070800;28;20467;-50
2022/08/09 09:59:42;;;;;;;4.53;4.13;;;23.50;99.90;;;;;;5071788;28;21105;-49
2022/08/09 10:02:10;;;;;;;5.83;3.87;;;24.00;99.90;;;;;;5070911;28;20527;-51
2022/08/09 10:04:38;;;;;;;5.53;3.77;;;23.90;99.90;;;;;;5070925;28;20436;-50
2022/08/09 10:07:20;;;;;;;4.17;3.83;;;23.80;99.90;;;;;;5070678;28;20483;-51
2022/08/09 10:09:49;;;;;;;4.63;4.23;;;23.90;99.90;;;;;;5070812;28;20460;-50
2022/08/09 10:12:27;;;;;;;5.13;4.73;;;23.70;99.90;;;;;;5070992;28;20428;-49
2022/08/09 10:15:06;;;;;;;4.47;4.07;;;24.00;99.90;;;;;;5070981;28;20515;-50
2022/08/09 10:17:35;;;;;;;5.40;3.73;;;24.00;99.90;;;;;;5070575;28;20977;-50
2022/08/09 10:20:05;;;;;;;4.43;4.07;;;24.20;99.90;;;;;;5070492;28;20468;-51
2022/08/09 10:22:36;;;;;;;4.20;3.80;;;24.20;99.90;;;;;;5070844;28;20436;-52
2022/08/09 10:25:07;;;;;;;6.37;4.37;;;24.20;99.90;;;;;;5070717;28;20493;-51
2022/08/09 10:27:36;;;;;;;3.93;3.63;;;24.00;99.90;;;;;;5070463;28;20974;-50
2022/08/09 10:30:04;;;;;;;4.13;3.83;;;23.90;99.90;;;;;;5070536;28;20621;-51
2022/08/09 10:32:31;;;;;;;3.53;3.23;;;24.30;99.90;;;;;;5073677;28;20913;-51
2022/08/09 10:34:58;;;;;;;10.83;7.43;;;24.60;99.90;;;;;;5078975;28;20455;-51
2022/08/09 10:37:26;;;;;;;6.30;4.80;;;24.40;99.90;;;;;;5080549;28;20563;-50
2022/08/09 10:39:55;;;;;;;4.10;3.70;;;24.70;99.90;;;;;;5080445;28;20487;-54
2022/08/09 10:42:22;;;;;;;4.03;3.63;;;24.30;99.90;;;;;;5078781;28;20481;-50
2022/08/09 10:44:54;;;;;;;4.17;3.73;;;24.50;99.90;;;;;;5079975;28;20515;-50
2022/08/09 10:47:47;;;;;;;4.23;3.83;;;24.90;99.90;;;;;;5080848;28;20967;-50
2022/08/09 10:50:27;;;;;;;5.07;4.67;;;24.80;99.90;;;;;;5078867;28;20452;-50
2022/08/09 10:53:05;;;;;;;3.80;3.50;;;24.70;99.90;;;;;;5082027;28;20424;-50
2022/08/09 10:55:34;;;;;;;3.90;3.30;;;24.70;99.90;;;;;;5070012;28;20432;-50
2022/08/09 10:58:01;;;;;;;4.90;4.00;;;25.00;99.90;;;;;;5070135;28;20871;-55
2022/08/09 11:00:40;;;;;;;3.60;3.20;;;24.90;99.90;;;;;;5069639;28;20547;-50
2022/08/09 11:03:21;;;;;;;4.70;3.20;;;24.90;99.90;;;;;;5069910;28;21004;-50
2022/08/09 11:06:20;;;;;;;3.57;3.10;;;24.40;99.90;;;;;;5069749;28;20519;-51
2022/08/09 11:08:48;;;;;;;22.23;5.37;;;23.90;99.90;;;;;;5068994;28;20449;-51
2022/08/09 11:11:18;;;;;;;8.43;3.97;;;24.20;99.90;;;;;;5068119;28;20582;-49
2022/08/09 11:13:46;;;;;;;19.50;4.53;;;23.90;99.90;;;;;;5068316;28;20452;-50
2022/08/09 11:16:36;;;;;;;8.77;4.27;;;24.30;99.90;;;;;;5069097;28;20504;-51
2022/08/09 11:19:07;;;;;;;9.43;4.33;;;24.20;99.90;;;;;;5068028;28;20509;-50
2022/08/09 11:21:52;;;;;;;4.90;3.70;;;24.50;99.90;;;;;;5069517;28;20483;-53
2022/08/09 11:24:20;;;;;;;8.50;3.73;;;24.30;99.90;;;;;;5069823;28;20514;-50
2022/08/09 11:26:49;;;;;;;4.10;3.80;;;24.10;99.90;;;;;;5069762;28;20528;-54
2022/08/09 11:29:54;;;;;;;4.20;3.83;;;24.80;99.90;;;;;;5068920;28;20456;-50
2022/08/09 11:32:42;;;;;;;4.80;4.40;;;25.00;99.90;;;;;;5069727;28;20506;-50
2022/08/09 11:35:15;;;;;;;11.90;4.63;;;25.00;99.90;;;;;;5069758;28;20906;-50
2022/08/09 11:37:43;;;;;;;3.50;3.20;;;25.10;99.90;;;;;;5069413;28;20472;-51
2022/08/09 11:40:13;;;;;;;4.10;3.80;;;25.20;99.90;;;;;;5069051;28;20451;-52
2022/08/09 11:42:45;;;;;;;26.70;4.60;;;24.90;99.90;;;;;;5069734;28;20440;-54
2022/08/09 11:45:23;;;;;;;3.70;3.00;;;24.50;99.90;;;;;;5069785;28;20444;-50
2022/08/09 11:47:52;;;;;;;22.50;5.70;;;24.90;99.90;;;;;;5069432;28;20436;-50
2022/08/09 11:50:20;;;;;;;5.00;2.97;;;24.80;99.90;;;;;;5069231;28;20468;-51
2022/08/09 11:53:21;;;;;;;5.10;3.40;;;24.90;99.90;;;;;;5069332;28;20918;-51
2022/08/09 11:55:49;;;;;;;3.93;3.23;;;24.80;99.90;;;;;;5069447;28;20459;-50
2022/08/09 11:58:43;;;;;;;17.63;5.50;;;24.60;99.90;;;;;;5069418;28;20480;-49
2022/08/09 12:01:11;;;;;;;3.60;3.30;;;24.70;99.90;;;;;;5069697;28;20440;-52
2022/08/09 12:03:38;;;;;;;18.37;4.30;;;25.10;99.90;;;;;;5073162;28;20444;-50
2022/08/09 12:06:18;;;;;;;11.73;5.00;;;25.20;99.90;;;;;;5073295;28;20448;-50
2022/08/09 12:08:47;;;;;;;3.70;3.40;;;24.60;99.90;;;;;;5072923;28;20467;-51
2022/08/09 12:11:16;;;;;;;3.60;3.30;;;24.60;99.90;;;;;;5073097;28;20440;-51
2022/08/09 12:13:47;;;;;;;9.63;4.83;;;25.00;99.90;;;;;;5073056;28;20436;-50
2022/08/09 12:16:16;;;;;;;16.37;4.33;;;24.90;99.90;;;;;;5072286;28;20533;-49
2022/08/09 12:18:45;;;;;;;17.37;5.03;;;24.80;99.90;;;;;;5072747;28;20468;-50
2022/08/09 12:21:13;;;;;;;6.00;3.77;;;24.80;99.90;;;;;;5072888;28;20444;-52
2022/08/09 12:23:45;;;;;;;4.60;3.40;;;24.90;99.90;;;;;;5072622;28;20509;-53
2022/08/09 12:26:13;;;;;;;3.43;3.13;;;24.70;99.90;;;;;;5072466;28;20519;-50
2022/08/09 12:28:49;;;;;;;2.83;2.60;;;24.90;99.90;;;;;;5071038;28;20495;-55
2022/08/09 12:31:21;;;;;;;2.83;2.63;;;25.00;99.90;;;;;;5072633;28;20460;-50
2022/08/09 12:33:49;;;;;;;3.40;3.10;;;25.10;99.90;;;;;;5072811;28;20537;-50
2022/08/09 12:36:16;;;;;;;4.00;3.60;;;24.80;99.90;;;;;;5072606;28;20530;-50
2022/08/09 12:38:43;;;;;;;54.70;7.70;;;25.00;99.90;;;;;;5072392;28;20907;-49
2022/08/09 12:41:10;;;;;;;3.00;2.70;;;24.90;99.90;;;;;;5072216;28;20485;-52
2022/08/09 12:43:38;;;;;;;3.37;3.07;;;25.00;99.90;;;;;;5072306;28;20444;-52
2022/08/09 12:46:08;;;;;;;3.80;3.03;;;24.90;99.90;;;;;;5072435;28;20911;-52
2022/08/09 12:48:35;;;;;;;4.00;2.93;;;25.10;99.90;;;;;;5072216;28;20452;-50
2022/08/09 12:51:03;;;;;;;3.40;3.10;;;25.30;99.90;;;;;;5071880;28;20493;-51
2022/08/09 12:53:32;;;;;;;4.07;3.67;;;25.20;99.90;;;;;;5072249;28;20816;-51
2022/08/09 12:56:09;;;;;;;2.80;2.60;;;25.30;99.90;;;;;;5072127;28;20456;-53
2022/08/09 12:58:37;;;;;;;2.90;2.70;;;25.30;99.90;;;;;;5071793;28;20566;-52